createdAt,value
2023-05-31T00:02:20.935Z,13.94
2023-05-31T00:04:55.601Z,13.90
2023-05-31T00:07:24.734Z,13.87
2023-05-31T00:09:53.216Z,13.85
2023-05-31T00:12:22.470Z,13.86
2023-05-31T00:14:51.404Z,13.87
2023-05-31T00:19:51.891Z,13.88
2023-05-31T00:22:22.843Z,13.91
2023-05-31T00:24:51.489Z,13.94
2023-05-31T00:27:20.595Z,13.95
2023-05-31T00:29:49.574Z,13.94
2023-05-31T00:32:18.316Z,13.98
2023-05-31T00:34:47.647Z,13.99
2023-05-31T00:37:23.269Z,13.94
2023-05-31T00:39:52.169Z,13.88
2023-05-31T00:42:20.784Z,13.89
2023-05-31T00:44:49.567Z,13.95
2023-05-31T00:47:18.307Z,13.95
2023-05-31T00:49:47.520Z,13.94
2023-05-31T00:52:20.134Z,13.95
2023-05-31T00:54:49.533Z,13.96
2023-05-31T00:57:18.270Z,13.96
2023-05-31T00:59:51.092Z,13.97
2023-05-31T01:02:20.485Z,13.98
2023-05-31T01:04:50.597Z,13.96
2023-05-31T01:07:19.545Z,13.93
2023-05-31T01:09:51.360Z,13.92
2023-05-31T01:12:29.278Z,13.93
2023-05-31T01:15:13.327Z,13.91
2023-05-31T01:18:02.521Z,13.88
2023-05-31T01:20:36.054Z,13.78
2023-05-31T01:23:14.456Z,13.58
2023-05-31T01:26:05.528Z,13.51
2023-05-31T01:28:38.633Z,13.49
2023-05-31T01:31:13.183Z,13.51
2023-05-31T01:33:44.005Z,13.55
2023-05-31T01:36:20.439Z,13.56
2023-05-31T01:38:51.149Z,13.57
2023-05-31T01:41:22.303Z,13.56
2023-05-31T01:43:52.000Z,13.56
2023-05-31T01:46:21.551Z,13.55
2023-05-31T01:48:50.920Z,13.55
2023-05-31T01:51:21.892Z,13.52
2023-05-31T01:53:51.258Z,13.47
2023-05-31T01:56:23.046Z,13.43
2023-05-31T01:58:53.259Z,13.39
2023-05-31T02:01:24.236Z,13.36
2023-05-31T02:03:53.607Z,13.33
2023-05-31T02:06:22.465Z,13.30
2023-05-31T02:08:51.761Z,13.29
2023-05-31T02:11:21.022Z,13.23
2023-05-31T02:13:49.902Z,13.20
2023-05-31T02:16:18.888Z,13.18
2023-05-31T02:18:48.693Z,13.16
2023-05-31T02:21:17.953Z,13.11
2023-05-31T02:23:48.331Z,13.07
2023-05-31T02:26:18.357Z,13.02
2023-05-31T02:28:48.876Z,13.00
2023-05-31T02:31:20.043Z,12.96
2023-05-31T02:33:51.964Z,12.91
2023-05-31T02:36:30.017Z,12.85
2023-05-31T02:38:59.022Z,12.82
2023-05-31T02:41:28.446Z,12.81
2023-05-31T02:44:00.024Z,12.80
2023-05-31T02:46:35.478Z,12.80
2023-05-31T02:49:05.080Z,12.82
2023-05-31T02:51:34.921Z,12.80
2023-05-31T02:54:29.865Z,12.78
2023-05-31T02:57:03.669Z,12.78
2023-05-31T02:59:37.156Z,12.81
2023-05-31T03:02:10.283Z,12.81
2023-05-31T03:04:55.692Z,12.80
2023-05-31T03:07:24.793Z,12.80
2023-05-31T03:09:53.344Z,12.79
2023-05-31T03:12:22.572Z,12.82
2023-05-31T03:14:51.279Z,12.83
2023-05-31T03:17:19.696Z,12.80
2023-05-31T03:19:50.762Z,12.81
2023-05-31T03:22:19.914Z,12.78
2023-05-31T03:24:49.356Z,12.75
2023-05-31T03:27:20.034Z,12.71
2023-05-31T03:29:48.669Z,12.66
2023-05-31T03:32:17.200Z,12.60
2023-05-31T03:34:46.581Z,12.56
2023-05-31T03:37:15.325Z,12.54
2023-05-31T03:39:46.663Z,12.54
2023-05-31T03:42:27.398Z,12.56
2023-05-31T03:44:55.985Z,12.63
2023-05-31T03:47:24.530Z,12.68
2023-05-31T03:49:53.351Z,12.70
2023-05-31T03:52:22.186Z,12.74
2023-05-31T03:54:51.112Z,12.80
2023-05-31T03:57:22.095Z,12.87
2023-05-31T03:59:50.799Z,12.93
2023-05-31T04:02:19.910Z,13.00
2023-05-31T04:04:49.133Z,13.06
2023-05-31T04:07:19.390Z,13.16
2023-05-31T04:09:47.895Z,13.22
2023-05-31T04:12:16.866Z,13.30
2023-05-31T04:14:45.401Z,13.42
2023-05-31T04:17:14.335Z,13.54
2023-05-31T04:19:43.405Z,13.66
2023-05-31T04:22:12.148Z,13.78
2023-05-31T04:24:41.465Z,13.90
2023-05-31T04:27:12.245Z,14.02
2023-05-31T04:29:42.094Z,14.12
2023-05-31T04:32:11.111Z,14.24
2023-05-31T04:34:40.505Z,14.54
2023-05-31T04:37:10.370Z,15.56
2023-05-31T04:39:39.473Z,16.98
2023-05-31T04:42:12.973Z,18.18
2023-05-31T04:44:42.898Z,19.10
2023-05-31T04:47:12.070Z,19.81
2023-05-31T04:49:54.243Z,20.38
2023-05-31T04:52:30.563Z,20.79
2023-05-31T04:55:01.158Z,20.93
2023-05-31T04:57:32.765Z,20.91
2023-05-31T05:00:02.904Z,20.78
2023-05-31T05:02:32.949Z,20.76
2023-05-31T05:05:02.126Z,20.81
2023-05-31T05:07:31.346Z,20.91
2023-05-31T05:09:59.980Z,21.15
2023-05-31T05:12:30.607Z,21.37
2023-05-31T05:14:59.502Z,21.65
2023-05-31T05:17:28.943Z,21.98
2023-05-31T05:19:57.804Z,22.33
2023-05-31T05:22:27.634Z,22.71
2023-05-31T05:24:56.272Z,23.21
2023-05-31T05:27:24.956Z,23.67
2023-05-31T05:29:54.136Z,24.10
2023-05-31T05:32:22.834Z,24.43
2023-05-31T05:34:52.135Z,24.79
2023-05-31T05:37:21.286Z,25.11
2023-05-31T05:39:50.110Z,25.51
2023-05-31T05:42:19.309Z,25.95
2023-05-31T05:44:48.911Z,26.39
2023-05-31T05:47:17.831Z,26.79
2023-05-31T05:49:46.593Z,27.21
2023-05-31T05:52:15.379Z,27.67
2023-05-31T05:54:44.628Z,28.02
2023-05-31T05:57:13.626Z,28.23
2023-05-31T05:59:47.672Z,28.41
2023-05-31T06:02:25.176Z,28.68
2023-05-31T06:04:55.904Z,29.02
2023-05-31T06:07:24.602Z,29.08
2023-05-31T06:09:54.716Z,28.73
2023-05-31T06:12:23.929Z,28.19
2023-05-31T06:14:55.883Z,28.46
2023-05-31T06:17:25.190Z,29.17
2023-05-31T06:19:54.180Z,29.80
2023-05-31T06:22:23.072Z,30.20
2023-05-31T06:24:52.393Z,30.52
2023-05-31T06:27:21.112Z,30.75
2023-05-31T06:29:56.698Z,30.96
2023-05-31T06:32:32.685Z,31.15
2023-05-31T06:35:01.521Z,31.36
2023-05-31T06:37:30.690Z,31.53
2023-05-31T06:39:59.848Z,31.72
2023-05-31T06:42:29.035Z,32.03
2023-05-31T06:44:58.006Z,32.11
2023-05-31T06:47:45.809Z,31.99
2023-05-31T06:50:17.252Z,32.03
2023-05-31T06:52:49.592Z,32.13
2023-05-31T06:55:44.312Z,32.11
2023-05-31T06:58:17.254Z,32.14
2023-05-31T07:00:47.768Z,32.28
2023-05-31T07:03:17.243Z,32.39
2023-05-31T07:05:49.708Z,32.33
2023-05-31T07:08:19.167Z,32.11
2023-05-31T07:11:07.546Z,32.13
2023-05-31T07:13:36.570Z,32.34
2023-05-31T07:16:05.278Z,32.56
2023-05-31T07:18:34.154Z,32.72
2023-05-31T07:21:04.878Z,32.91
2023-05-31T07:23:33.578Z,33.16
2023-05-31T07:26:03.940Z,33.20
2023-05-31T07:28:32.987Z,33.28
2023-05-31T07:31:03.345Z,33.32
2023-05-31T07:33:32.700Z,33.21
2023-05-31T07:36:02.250Z,33.19
2023-05-31T07:38:32.283Z,33.29
2023-05-31T07:41:01.315Z,33.40
2023-05-31T07:43:34.306Z,33.55
2023-05-31T07:46:03.938Z,33.66
2023-05-31T07:48:34.897Z,33.56
2023-05-31T07:51:03.695Z,33.50
2023-05-31T07:53:32.818Z,33.51
2023-05-31T07:56:02.648Z,33.37
2023-05-31T07:58:32.162Z,33.30
2023-05-31T08:01:02.312Z,33.39
2023-05-31T08:03:32.930Z,33.54
2023-05-31T08:06:01.636Z,33.60
2023-05-31T08:08:31.235Z,33.59
2023-05-31T08:11:00.825Z,33.55
2023-05-31T08:13:30.506Z,33.60
2023-05-31T08:15:58.904Z,33.52
2023-05-31T08:18:28.023Z,33.47
2023-05-31T08:20:56.697Z,33.32
2023-05-31T08:23:25.376Z,33.06
2023-05-31T08:25:56.025Z,32.90
2023-05-31T08:28:25.335Z,32.90
2023-05-31T08:30:54.181Z,32.70
2023-05-31T08:33:23.255Z,32.32
2023-05-31T08:35:51.911Z,32.05
2023-05-31T08:38:21.030Z,31.80
2023-05-31T08:40:52.455Z,31.56
2023-05-31T08:43:23.108Z,31.60
2023-05-31T08:45:52.089Z,31.59
2023-05-31T08:48:37.145Z,31.55
2023-05-31T08:51:08.239Z,31.33
2023-05-31T08:53:38.668Z,31.09
2023-05-31T08:56:09.582Z,30.75
2023-05-31T08:58:40.290Z,30.50
2023-05-31T09:01:09.597Z,30.29
2023-05-31T09:03:39.650Z,30.05
2023-05-31T09:06:08.710Z,30.01
2023-05-31T09:08:37.591Z,29.97
2023-05-31T09:11:07.378Z,29.98
2023-05-31T09:13:36.801Z,29.92
2023-05-31T09:16:08.954Z,29.79
2023-05-31T09:18:42.801Z,29.68
2023-05-31T09:21:14.028Z,29.52
2023-05-31T09:24:09.806Z,29.46
2023-05-31T09:26:49.361Z,29.37
2023-05-31T09:29:19.759Z,29.22
2023-05-31T09:31:48.461Z,29.17
2023-05-31T09:34:28.909Z,29.35
2023-05-31T09:37:00.875Z,29.27
2023-05-31T09:39:30.410Z,29.10
2023-05-31T09:42:00.383Z,28.75
2023-05-31T09:44:29.494Z,28.57
2023-05-31T09:47:09.456Z,28.53
2023-05-31T09:49:38.685Z,28.24
2023-05-31T09:52:14.503Z,28.29
2023-05-31T09:54:44.180Z,28.29
2023-05-31T09:57:34.114Z,28.29
2023-05-31T10:00:06.192Z,28.47
2023-05-31T10:02:51.803Z,28.73
2023-05-31T10:05:22.033Z,28.98
2023-05-31T10:07:53.965Z,28.97
2023-05-31T10:10:23.570Z,28.73
2023-05-31T10:12:55.048Z,28.65
2023-05-31T10:15:26.747Z,28.55
2023-05-31T10:18:30.539Z,28.42
2023-05-31T10:21:01.388Z,28.28
2023-05-31T10:23:34.138Z,27.87
2023-05-31T10:26:19.177Z,27.60
2023-05-31T10:29:00.856Z,27.53
2023-05-31T10:31:35.085Z,27.52
2023-05-31T10:34:17.247Z,27.47
2023-05-31T10:36:46.589Z,27.41
2023-05-31T10:39:43.532Z,27.12
2023-05-31T10:42:51.019Z,26.64
2023-05-31T10:45:40.530Z,26.19
2023-05-31T10:48:58.590Z,25.88
2023-05-31T10:52:16.431Z,25.69
2023-05-31T10:54:45.415Z,25.74
2023-05-31T10:57:16.535Z,25.83
2023-05-31T10:59:48.828Z,25.86
2023-05-31T11:02:17.958Z,25.70
2023-05-31T11:04:49.120Z,25.48
2023-05-31T11:07:26.426Z,25.32
2023-05-31T11:09:58.139Z,25.40
2023-05-31T11:12:37.580Z,25.41
2023-05-31T11:15:13.141Z,25.30
2023-05-31T11:17:58.587Z,25.17
2023-05-31T11:20:28.095Z,25.01
2023-05-31T11:23:16.067Z,24.98
2023-05-31T11:25:57.082Z,24.98
2023-05-31T11:29:00.486Z,24.93
2023-05-31T11:32:08.132Z,24.86
2023-05-31T11:35:19.009Z,24.77
2023-05-31T11:37:49.110Z,24.60
2023-05-31T11:40:20.591Z,24.58
2023-05-31T11:42:49.640Z,24.48
2023-05-31T11:45:25.931Z,24.41
2023-05-31T11:48:37.090Z,24.42
2023-05-31T11:51:08.773Z,24.43
2023-05-31T11:53:38.445Z,24.32
2023-05-31T11:56:08.518Z,24.25
2023-05-31T11:58:37.059Z,24.22
2023-05-31T12:01:06.848Z,24.36
2023-05-31T12:03:41.766Z,24.45
2023-05-31T12:06:10.771Z,24.33
2023-05-31T12:08:42.255Z,24.14
2023-05-31T12:11:11.311Z,23.96
2023-05-31T12:13:40.114Z,23.93
2023-05-31T12:16:08.692Z,24.00
2023-05-31T12:18:38.070Z,24.03
2023-05-31T12:21:12.821Z,24.03
2023-05-31T12:24:03.692Z,24.08
2023-05-31T12:26:40.559Z,24.18
2023-05-31T12:29:09.996Z,24.21
2023-05-31T12:31:40.776Z,24.20
2023-05-31T12:34:14.337Z,24.32
2023-05-31T12:36:48.699Z,24.48
2023-05-31T12:39:23.475Z,24.40
2023-05-31T12:41:52.713Z,24.30
2023-05-31T12:44:22.637Z,24.27
2023-05-31T12:46:52.731Z,24.32
2023-05-31T12:49:24.452Z,24.42
2023-05-31T12:52:07.248Z,24.44
2023-05-31T12:54:41.799Z,24.42
2023-05-31T12:57:11.133Z,24.33
2023-05-31T12:59:41.132Z,24.27
2023-05-31T13:02:09.790Z,24.28
2023-05-31T13:04:38.648Z,24.21
2023-05-31T13:07:07.393Z,24.14
2023-05-31T13:09:36.867Z,24.07
2023-05-31T13:12:06.747Z,24.03
2023-05-31T13:14:35.314Z,23.95
2023-05-31T13:17:04.214Z,23.88
2023-05-31T13:19:34.414Z,23.87
2023-05-31T13:22:04.437Z,23.91
2023-05-31T13:24:33.935Z,23.99
2023-05-31T13:27:04.755Z,24.00
2023-05-31T13:29:34.109Z,24.09
2023-05-31T13:32:02.826Z,24.12
2023-05-31T13:34:31.978Z,24.12
2023-05-31T13:37:00.622Z,24.14
2023-05-31T13:39:29.298Z,24.07
2023-05-31T13:41:59.652Z,24.08
2023-05-31T13:44:28.250Z,24.10
2023-05-31T13:46:56.861Z,24.07
2023-05-31T13:49:26.058Z,23.97
2023-05-31T13:51:54.620Z,23.80
2023-05-31T13:54:23.165Z,23.74
2023-05-31T13:56:52.032Z,23.83
2023-05-31T13:59:20.736Z,23.86
2023-05-31T14:01:49.339Z,23.82
2023-05-31T14:04:19.943Z,23.85
2023-05-31T14:06:50.791Z,23.94
2023-05-31T14:09:20.273Z,23.99
2023-05-31T14:11:49.094Z,24.07
2023-05-31T14:14:19.084Z,24.20
2023-05-31T14:16:48.634Z,24.30
2023-05-31T14:19:17.298Z,24.32
2023-05-31T14:21:48.339Z,24.27
2023-05-31T14:24:17.615Z,24.25
2023-05-31T14:26:48.009Z,24.28
2023-05-31T14:29:16.694Z,24.25
2023-05-31T14:31:46.039Z,24.17
2023-05-31T14:34:16.888Z,24.16
2023-05-31T14:36:46.324Z,24.17
2023-05-31T14:39:15.713Z,24.18
2023-05-31T14:41:44.474Z,24.11
2023-05-31T14:44:13.052Z,24.06
2023-05-31T14:46:42.093Z,24.06
2023-05-31T14:49:11.104Z,24.10
2023-05-31T14:51:39.885Z,24.09
2023-05-31T14:54:08.772Z,24.09
2023-05-31T14:56:37.662Z,24.12
2023-05-31T14:59:06.375Z,24.20
2023-05-31T15:01:35.444Z,24.29
2023-05-31T15:04:07.273Z,24.35
2023-05-31T15:06:38.632Z,24.28
2023-05-31T15:09:08.863Z,24.21
2023-05-31T15:11:38.250Z,24.14
2023-05-31T15:14:10.279Z,24.09
2023-05-31T15:16:39.563Z,24.11
2023-05-31T15:19:08.527Z,24.14
2023-05-31T15:21:38.482Z,24.14
2023-05-31T15:24:07.426Z,24.17
2023-05-31T15:26:36.114Z,24.22
2023-05-31T15:29:04.979Z,24.27
2023-05-31T15:31:33.947Z,24.34
2023-05-31T15:34:02.560Z,24.39
2023-05-31T15:36:31.580Z,24.43
2023-05-31T15:39:03.084Z,24.47
2023-05-31T15:41:32.263Z,24.48
2023-05-31T15:44:01.318Z,24.46
2023-05-31T15:46:30.156Z,24.35
2023-05-31T15:48:58.814Z,24.29
2023-05-31T15:51:27.920Z,24.28
2023-05-31T15:53:58.135Z,24.31
2023-05-31T15:56:28.279Z,24.37
2023-05-31T15:58:57.188Z,24.44
2023-05-31T16:01:25.877Z,24.34
2023-05-31T16:03:55.473Z,24.15
2023-05-31T16:06:24.543Z,24.13
2023-05-31T16:08:53.336Z,24.19
2023-05-31T16:11:22.471Z,24.21
2023-05-31T16:13:52.437Z,24.23
2023-05-31T16:16:21.386Z,24.27
2023-05-31T16:18:51.734Z,24.34
2023-05-31T16:21:21.212Z,24.40
2023-05-31T16:23:49.896Z,24.38
2023-05-31T16:26:18.555Z,24.40
2023-05-31T16:28:47.704Z,24.41
2023-05-31T16:31:16.868Z,24.42
2023-05-31T16:33:46.767Z,24.45
2023-05-31T16:36:15.676Z,24.46
2023-05-31T16:38:44.268Z,24.43
2023-05-31T16:41:13.085Z,24.35
2023-05-31T16:43:42.504Z,24.32
2023-05-31T16:46:11.251Z,24.28
2023-05-31T16:48:40.482Z,24.25
2023-05-31T16:51:09.745Z,24.25
2023-05-31T16:53:38.287Z,24.27
2023-05-31T16:56:07.793Z,24.32
2023-05-31T16:58:36.769Z,24.35
2023-05-31T17:01:09.886Z,24.37
2023-05-31T17:04:03.915Z,24.36
2023-05-31T17:06:57.742Z,24.32
2023-05-31T17:09:52.209Z,24.28
2023-05-31T17:12:36.761Z,24.27
2023-05-31T17:15:30.195Z,24.22
2023-05-31T17:18:13.747Z,24.15
2023-05-31T17:21:02.512Z,24.10
2023-05-31T17:23:51.457Z,24.06
2023-05-31T17:26:40.730Z,24.02
2023-05-31T17:29:32.263Z,23.96
2023-05-31T17:32:29.892Z,23.89
2023-05-31T17:35:18.309Z,23.83
2023-05-31T17:38:09.442Z,23.71
2023-05-31T17:40:54.822Z,23.60
2023-05-31T17:43:30.818Z,23.49
2023-05-31T17:46:00.632Z,23.40
2023-05-31T17:48:30.586Z,23.33
2023-05-31T17:51:01.956Z,23.21
2023-05-31T17:53:30.835Z,23.10
2023-05-31T17:56:00.133Z,23.01
2023-05-31T17:58:30.405Z,22.94
2023-05-31T18:00:59.438Z,22.89
2023-05-31T18:03:28.702Z,22.87
2023-05-31T18:05:58.092Z,22.83
2023-05-31T18:08:27.078Z,22.78
2023-05-31T18:10:56.038Z,22.70
2023-05-31T18:13:24.918Z,22.62
2023-05-31T18:15:53.563Z,22.55
2023-05-31T18:18:22.971Z,22.39
2023-05-31T18:20:52.316Z,22.19
2023-05-31T18:23:20.945Z,22.05
2023-05-31T18:25:49.644Z,21.97
2023-05-31T18:28:19.151Z,21.90
2023-05-31T18:30:47.726Z,21.86
2023-05-31T18:33:17.157Z,21.78
2023-05-31T18:35:46.334Z,21.64
2023-05-31T18:38:14.886Z,21.55
2023-05-31T18:40:45.618Z,21.50
2023-05-31T18:43:14.563Z,21.40
2023-05-31T18:45:43.069Z,21.29
2023-05-31T18:48:11.682Z,21.20
2023-05-31T18:50:41.052Z,21.13
2023-05-31T18:53:09.614Z,21.11
2023-05-31T18:55:40.167Z,21.12
2023-05-31T18:58:09.533Z,21.11
2023-05-31T19:00:39.302Z,21.08
2023-05-31T19:03:11.553Z,21.05
2023-05-31T19:05:40.846Z,20.93
2023-05-31T19:08:09.688Z,20.77
2023-05-31T19:10:39.412Z,20.69
2023-05-31T19:13:10.692Z,20.64
2023-05-31T19:15:40.008Z,20.58
2023-05-31T19:18:18.282Z,20.52
2023-05-31T19:20:49.821Z,20.45
2023-05-31T19:23:19.636Z,20.40
2023-05-31T19:25:48.339Z,20.32
2023-05-31T19:28:17.366Z,20.21
2023-05-31T19:30:47.164Z,20.10
2023-05-31T19:33:17.589Z,19.98
2023-05-31T19:35:49.504Z,19.89
2023-05-31T19:38:18.044Z,19.83
2023-05-31T19:40:47.896Z,19.81
2023-05-31T19:43:19.704Z,19.80
2023-05-31T19:45:48.476Z,19.81
2023-05-31T19:48:18.220Z,19.81
2023-05-31T19:50:47.127Z,19.82
2023-05-31T19:53:15.815Z,19.83
2023-05-31T19:55:48.023Z,19.80
2023-05-31T19:58:17.689Z,19.70
2023-05-31T20:00:46.719Z,19.60
2023-05-31T20:03:15.900Z,19.51
2023-05-31T20:05:44.786Z,19.46
2023-05-31T20:08:13.649Z,19.42
2023-05-31T20:10:44.469Z,19.38
2023-05-31T20:13:16.041Z,19.39
2023-05-31T20:15:47.853Z,19.37
2023-05-31T20:18:17.658Z,19.35
2023-05-31T20:20:47.358Z,19.33
2023-05-31T20:23:16.275Z,19.29
2023-05-31T20:25:45.192Z,19.23
2023-05-31T20:28:14.887Z,19.16
2023-05-31T20:30:43.764Z,19.11
2023-05-31T20:33:12.827Z,19.08
2023-05-31T20:35:45.669Z,19.04
2023-05-31T20:38:14.985Z,18.98
2023-05-31T20:40:44.081Z,18.94
2023-05-31T20:43:13.897Z,18.92
2023-05-31T20:45:43.101Z,18.91
2023-05-31T20:48:11.743Z,18.90
2023-05-31T20:50:40.702Z,18.85
2023-05-31T20:53:10.283Z,18.78
2023-05-31T20:55:39.997Z,18.71
2023-05-31T20:58:09.075Z,18.66
2023-05-31T21:00:38.282Z,18.62
2023-05-31T21:03:08.214Z,18.59
2023-05-31T21:05:38.406Z,18.55
2023-05-31T21:08:07.452Z,18.51
2023-05-31T21:10:36.094Z,18.48
2023-05-31T21:13:04.923Z,18.42
2023-05-31T21:15:33.553Z,18.33
2023-05-31T21:18:02.195Z,18.27
2023-05-31T21:20:31.407Z,18.24
2023-05-31T21:23:00.104Z,18.20
2023-05-31T21:25:29.041Z,18.14
2023-05-31T21:27:58.331Z,18.09
2023-05-31T21:30:26.884Z,18.01
2023-05-31T21:32:55.453Z,17.96
2023-05-31T21:35:24.494Z,17.92
2023-05-31T21:37:53.106Z,17.85
2023-05-31T21:40:24.597Z,17.81
2023-05-31T21:42:53.281Z,17.78
2023-05-31T21:45:22.221Z,17.76
2023-05-31T21:47:50.727Z,17.75
2023-05-31T21:50:19.487Z,17.71
2023-05-31T21:52:48.808Z,17.63
2023-05-31T21:55:17.330Z,17.58
2023-05-31T21:57:46.621Z,17.53
2023-05-31T22:00:15.559Z,17.44
2023-05-31T22:02:44.166Z,17.37
2023-05-31T22:05:13.315Z,17.33
2023-05-31T22:07:42.301Z,17.31
2023-05-31T22:10:11.083Z,17.28
2023-05-31T22:12:39.811Z,17.25
2023-05-31T22:15:09.288Z,17.21
2023-05-31T22:17:39.534Z,17.17
2023-05-31T22:20:08.621Z,17.12
2023-05-31T22:22:38.620Z,17.09
2023-05-31T22:27:40.757Z,17.03
2023-05-31T22:30:09.929Z,17.00
2023-05-31T22:32:38.551Z,16.98
2023-05-31T22:35:07.894Z,16.98
2023-05-31T22:37:38.501Z,17.01
2023-05-31T22:40:07.289Z,16.96
2023-05-31T22:42:36.658Z,16.94
2023-05-31T22:45:06.330Z,16.93
2023-05-31T22:47:35.447Z,16.89
2023-05-31T22:50:06.832Z,16.88
2023-05-31T22:52:38.616Z,16.86
2023-05-31T22:55:08.426Z,16.81
2023-05-31T22:57:38.641Z,16.78
2023-05-31T23:00:12.700Z,16.76
2023-05-31T23:02:42.454Z,16.73
2023-05-31T23:05:12.593Z,16.69
2023-05-31T23:07:48.350Z,16.69
2023-05-31T23:10:17.395Z,16.65
2023-05-31T23:12:46.667Z,16.58
2023-05-31T23:15:16.119Z,16.51
2023-05-31T23:17:44.943Z,16.47
2023-05-31T23:20:16.214Z,16.44
2023-05-31T23:22:50.087Z,16.41
2023-05-31T23:25:18.613Z,16.36
2023-05-31T23:27:47.144Z,16.37
2023-05-31T23:30:16.302Z,16.35
2023-05-31T23:32:45.078Z,16.32
2023-05-31T23:35:13.909Z,16.32
2023-05-31T23:37:42.968Z,16.33
2023-05-31T23:40:11.980Z,16.35
2023-05-31T23:42:40.874Z,16.35
2023-05-31T23:45:10.059Z,16.35
2023-05-31T23:47:38.668Z,16.34
2023-05-31T23:50:08.535Z,16.30
2023-05-31T23:52:37.779Z,16.26
2023-05-31T23:55:07.611Z,16.22
2023-05-31T23:57:36.286Z,16.22
